Time;durP1;ratioP1;P1;durP2;ratioP2;P2;SDS_P1;SDS_P2;PMS_P1;PMS_P2;Temp;Humidity;BMP_temperature;BMP_pressure;BME280_temperature;BME280_humidity;BME280_pressure;Samples;Min_cycle;Max_cycle;Signal;HPM_P1;HPM_P2
2022/11/18 00:01:12;;;;;;;;;23.00;17.67;;;;;0.34;84.41;97139.53;4972707;28;102266;-73
2022/11/18 00:03:40;;;;;;;;;10.33;9.00;;;;;0.45;84.38;97141.81;4973300;28;107992;-73
2022/11/18 00:06:14;;;;;;;;;9.50;6.50;;;;;0.53;83.91;97130.31;4973782;28;102376;-73
2022/11/18 00:08:41;;;;;;;;;10.00;8.00;;;;;0.50;83.29;97118.19;4971845;28;102127;-72
2022/11/18 00:14:17;;;;;;;;;8.00;7.50;;;;;0.64;82.94;97124.56;4959917;28;108616;-73
2022/11/18 00:17:00;;;;;;;;;8.00;7.00;;;;;0.61;82.16;97131.09;4960914;28;104191;-72
2022/11/18 00:19:32;;;;;;;;;7.50;5.75;;;;;0.64;82.51;97125.41;4961929;28;102284;-73
2022/11/18 00:22:00;;;;;;;;;13.50;9.75;;;;;0.47;83.79;97117.69;4967061;28;101858;-73
2022/11/18 00:24:27;;;;;;;;;12.00;12.00;;;;;0.55;82.99;97123.81;4956237;28;102982;-72
2022/11/18 00:26:55;;;;;;;;;14.00;10.00;;;;;0.55;83.65;97125.63;4968199;28;102389;-73
2022/11/18 00:29:22;;;;;;;;;8.75;7.50;;;;;0.47;82.46;97099.09;4957397;28;104014;-73
2022/11/18 00:31:49;;;;;;;;;12.00;8.75;;;;;0.57;82.71;97129.78;4961080;28;102362;-74
2022/11/18 00:34:18;;;;;;;;;14.00;13.67;;;;;0.47;83.05;97123.84;4938055;28;104113;-73
2022/11/18 00:36:46;;;;;;;;;14.67;11.67;;;;;0.45;83.15;97132.00;4959722;28;102652;-73
2022/11/18 00:39:16;;;;;;;;;17.50;15.75;;;;;0.44;83.47;97142.81;4967989;27;102706;-74
2022/11/18 00:44:29;;;;;;;;;9.00;9.00;;;;;0.38;82.05;97095.66;4965546;28;104281;-73
2022/11/18 00:46:57;;;;;;;;;15.00;11.00;;;;;0.47;83.54;97115.88;4963652;28;102889;-73
2022/11/18 00:49:24;;;;;;;;;13.33;10.00;;;;;0.43;83.88;97127.88;4967665;28;102706;-73
2022/11/18 00:51:51;;;;;;;;;12.00;9.00;;;;;0.47;83.78;97129.16;4966549;28;102186;-73
2022/11/18 00:54:18;;;;;;;;;9.25;7.50;;;;;0.48;83.63;97125.50;4962459;28;105541;-73
2022/11/18 00:56:45;;;;;;;;;8.75;8.00;;;;;0.52;83.02;97116.19;4965822;28;102353;-72
2022/11/18 00:59:12;;;;;;;;;11.00;8.25;;;;;0.48;82.85;97130.84;4965108;28;102333;-73
2022/11/18 01:01:39;;;;;;;;;12.25;9.00;;;;;0.37;82.83;97125.88;4968481;28;102063;-73
2022/11/18 01:04:06;;;;;;;;;12.00;10.33;;;;;0.45;82.76;97117.91;4957704;28;104094;-73
2022/11/18 01:06:33;;;;;;;;;13.00;12.33;;;;;0.41;83.62;97108.59;4962420;28;102503;-72
2022/11/18 01:08:59;;;;;;;;;9.50;8.25;;;;;0.40;82.84;97104.28;4953504;28;102179;-72
2022/11/18 01:14:12;;;;;;;;;9.67;9.00;;;;;0.41;83.74;97124.53;4958545;28;108381;-73
2022/11/18 01:16:39;;;;;;;;;9.75;9.00;;;;;0.44;82.97;97124.22;4957331;28;102889;-72
2022/11/18 01:19:06;;;;;;;;;10.67;10.00;;;;;0.42;83.71;97123.53;4963620;28;102225;-73
2022/11/18 01:21:33;;;;;;;;;9.33;7.67;;;;;0.39;82.93;97107.94;4960232;28;103420;-73
2022/11/18 01:24:00;;;;;;;;;9.00;8.00;;;;;0.44;83.26;97124.22;4970384;28;102832;-73
2022/11/18 01:26:27;;;;;;;;;14.00;13.00;;;;;0.42;83.04;97116.41;4968599;28;104437;-73
2022/11/18 01:28:56;;;;;;;;;9.33;9.00;;;;;0.41;83.58;97113.91;4967940;28;102156;-73
2022/11/18 01:31:23;;;;;;;;;10.00;8.25;;;;;0.48;82.21;97114.03;4968601;28;102258;-73
2022/11/18 01:33:51;;;;;;;;;12.50;9.25;;;;;0.42;82.42;97099.63;4970050;28;103768;-73
2022/11/18 01:36:23;;;;;;;;;16.33;12.33;;;;;0.39;83.91;97100.81;4956628;28;102149;-72
2022/11/18 01:38:51;;;;;;;;;13.33;9.00;;;;;0.33;83.85;97106.81;4969866;28;102422;-73
2022/11/18 01:41:20;;;;;;;;;16.00;13.67;;;;;0.32;82.52;97088.38;4950510;28;102859;-72
2022/11/18 01:43:53;;;;;;;;;16.00;15.67;;;;;0.24;83.24;97091.91;4958264;28;103958;-72
2022/11/18 01:46:21;;;;;;;;;12.00;9.00;;;;;0.32;83.34;97086.53;4969937;28;102166;-73
2022/11/18 01:48:54;;;;;;;;;9.00;8.00;;;;;0.33;83.33;97080.22;4969974;28;105203;-72
2022/11/18 01:51:30;;;;;;;;;15.67;14.00;;;;;0.24;82.81;97078.59;4971239;28;101861;-73
2022/11/18 01:54:05;;;;;;;;;13.00;11.33;;;;;0.23;83.71;97065.47;4963793;28;103986;-73
2022/11/18 01:56:44;;;;;;;;;22.00;17.00;;;;;0.12;83.55;97066.72;4963252;28;102054;-73
2022/11/18 01:59:15;;;;;;;;;16.67;12.33;;;;;0.14;84.61;97064.69;4969933;28;102317;-73
2022/11/18 02:01:43;;;;;;;;;12.00;9.00;;;;;0.20;83.83;97071.16;4965738;28;102466;-73
2022/11/18 02:04:11;;;;;;;;;20.33;14.00;;;;;0.21;84.12;97064.84;4962838;28;110996;-73
2022/11/18 02:06:52;;;;;;;;;15.00;10.67;;;;;0.16;84.04;97072.50;4963998;28;102155;-73
2022/11/18 02:09:42;;;;;;;;;12.33;11.33;;;;;0.06;84.12;97048.81;4965704;28;101953;-73
2022/11/18 02:12:28;;;;;;;;;17.33;14.33;;;;;0.12;84.45;97063.22;4966939;28;101987;-73
2022/11/18 02:15:59;;;;;;;;;16.33;12.00;;;;;0.19;83.98;97051.72;4964929;28;103040;-73
2022/11/18 02:19:05;;;;;;;;;13.00;11.33;;;;;0.08;83.70;97043.31;4939744;28;102412;-73
2022/11/18 02:22:04;;;;;;;;;14.33;11.00;;;;;0.20;83.64;97064.00;4956230;28;102578;-72
2022/11/18 02:25:03;;;;;;;;;17.67;12.67;;;;;0.20;82.88;97068.50;4960267;28;102318;-73
2022/11/18 02:28:08;;;;;;;;;17.00;13.67;;;;;0.08;83.29;97059.28;4909577;28;108919;-73
2022/11/18 02:31:01;;;;;;;;;13.67;12.00;;;;;-0.01;84.03;97066.44;4893330;28;102201;-72
2022/11/18 02:33:42;;;;;;;;;17.67;15.00;;;;;-0.06;83.82;97050.19;4898393;28;102017;-73
2022/11/18 02:36:27;;;;;;;;;20.00;17.33;;;;;-0.09;84.48;97054.00;4929734;28;102467;-73
2022/11/18 02:39:02;;;;;;;;;12.00;11.00;;;;;-0.02;84.91;97054.16;4954287;28;108614;-73
2022/11/18 02:41:33;;;;;;;;;13.00;10.00;;;;;-0.15;84.20;97017.53;4943210;28;103497;-73
2022/11/18 02:44:20;;;;;;;;;15.67;9.00;;;;;0.07;85.11;97052.28;4958293;28;102533;-73
2022/11/18 02:46:54;;;;;;;;;15.00;9.00;;;;;0.05;84.60;97049.78;4949333;28;102591;-72
2022/11/18 02:49:37;;;;;;;;;12.33;8.00;;;;;0.16;84.99;97070.69;4951274;28;104014;-72
2022/11/18 02:52:07;;;;;;;;;8.67;8.67;;;;;0.17;84.86;97060.88;4963287;28;104918;-73
2022/11/18 02:54:38;;;;;;;;;18.33;14.33;;;;;0.14;83.91;97063.88;4971445;27;102285;-72
2022/11/18 02:57:07;;;;;;;;;14.33;11.33;;;;;0.06;83.83;97066.56;4957646;28;103313;-72
2022/11/18 02:59:35;;;;;;;;;16.67;13.00;;;;;-0.05;84.72;97065.97;4968639;28;104247;-73
2022/11/18 03:02:03;;;;;;;;;20.33;16.00;;;;;-0.12;85.89;97054.38;4970840;28;102508;-72
2022/11/18 03:04:33;;;;;;;;;12.67;11.33;;;;;-0.17;86.28;97051.38;4969087;28;102412;-73
2022/11/18 03:07:04;;;;;;;;;9.67;9.67;;;;;-0.10;86.44;97062.16;4968655;28;102376;-72
2022/11/18 03:09:37;;;;;;;;;12.33;11.00;;;;;-0.03;86.07;97069.28;4966183;28;104019;-73
2022/11/18 03:12:23;;;;;;;;;12.67;9.67;;;;;-0.09;86.56;97067.28;4961803;28;108063;-73
2022/11/18 03:15:07;;;;;;;;;9.00;9.00;;;;;-0.09;85.85;97056.66;4972105;28;102725;-72
2022/11/18 03:18:06;;;;;;;;;8.67;8.00;;;;;-0.06;85.67;97055.50;4968303;28;109720;-73
2022/11/18 03:20:54;;;;;;;;;15.67;10.67;;;;;-0.17;85.30;97054.06;4968682;27;108895;-74
2022/11/18 03:23:40;;;;;;;;;9.33;6.00;;;;;-0.12;86.13;97054.38;4971721;28;102212;-72
2022/11/18 03:26:23;;;;;;;;;12.00;11.00;;;;;-0.13;86.30;97058.00;4972966;27;102069;-74
2022/11/18 03:29:01;;;;;;;;;8.33;6.00;;;;;-0.11;86.06;97050.72;4958662;28;102357;-73
2022/11/18 03:31:38;;;;;;;;;12.00;8.67;;;;;-0.17;86.35;97051.38;4956185;28;103987;-72
2022/11/18 03:34:18;;;;;;;;;10.00;10.00;;;;;-0.24;86.45;97055.75;4973101;28;102455;-73
2022/11/18 03:36:50;;;;;;;;;16.00;12.00;;;;;-0.33;86.60;97045.31;4971033;28;102297;-72
2022/11/18 03:39:21;;;;;;;;;15.67;10.33;;;;;-0.22;87.48;97058.22;4971587;28;102491;-72
2022/11/18 03:41:56;;;;;;;;;11.67;8.33;;;;;-0.17;87.62;97051.38;4969579;28;104268;-72
2022/11/18 03:44:29;;;;;;;;;16.00;12.00;;;;;-0.25;87.54;97059.41;4966156;27;102288;-72
2022/11/18 03:47:24;;;;;;;;;13.00;10.33;;;;;-0.27;88.09;97045.44;4968845;28;102635;-72
2022/11/18 03:50:03;;;;;;;;;14.00;12.00;;;;;-0.30;87.79;97039.66;4966358;28;103701;-72
2022/11/18 03:52:34;;;;;;;;;13.67;11.00;;;;;-0.23;87.63;97045.97;4971280;28;106376;-73
2022/11/18 03:55:08;;;;;;;;;16.00;9.00;;;;;-0.28;88.51;97038.50;4948528;28;102396;-72
2022/11/18 03:57:48;;;;;;;;;13.67;9.00;;;;;-0.29;88.97;97055.44;4973260;28;102268;-73
2022/11/18 04:00:16;;;;;;;;;13.00;9.00;;;;;-0.33;89.26;97056.78;4970561;28;104225;-72
2022/11/18 04:02:46;;;;;;;;;8.67;6.00;;;;;-0.32;89.12;97046.97;4975321;28;102806;-72
2022/11/18 04:05:16;;;;;;;;;4.67;4.33;;;;;-0.29;88.68;97042.16;4972905;27;102117;-72
2022/11/18 04:07:54;;;;;;;;;6.67;5.33;;;;;-0.39;88.35;97020.28;4973626;28;102088;-72
2022/11/18 04:10:43;;;;;;;;;9.00;6.00;;;;;-0.35;88.25;97039.34;4966261;28;102575;-71
2022/11/18 04:13:13;;;;;;;;;8.00;5.33;;;;;-0.34;88.37;97039.19;4956551;28;108880;-72
2022/11/18 04:15:41;;;;;;;;;8.33;6.00;;;;;-0.32;88.67;97031.06;4970212;28;102195;-72
2022/11/18 04:18:09;;;;;;;;;4.00;2.00;;;;;-0.35;88.97;97024.25;4963004;28;102003;-73
2022/11/18 04:20:37;;;;;;;;;5.25;4.50;;;;;-0.32;88.29;97031.88;4969016;28;102077;-72
2022/11/18 04:23:05;;;;;;;;;8.00;6.33;;;;;-0.35;88.39;97026.06;4971939;28;104045;-72
2022/11/18 04:25:33;;;;;;;;;13.00;8.33;;;;;-0.43;88.42;97013.66;4971619;28;103519;-72
2022/11/18 04:28:00;;;;;;;;;4.50;4.50;;;;;-0.34;88.63;97011.78;4970746;28;102218;-72
2022/11/18 04:30:27;;;;;;;;;11.33;5.00;;;;;-0.44;88.66;97022.63;4972641;28;102514;-72
2022/11/18 04:32:54;;;;;;;;;7.00;5.00;;;;;-0.38;89.08;97011.31;4957313;28;103970;-72
2022/11/18 04:35:21;;;;;;;;;8.00;6.00;;;;;-0.47;88.77;96997.25;4970839;28;102355;-72
2022/11/18 04:37:48;;;;;;;;;5.00;5.00;;;;;-0.37;88.43;97015.63;4972514;28;103210;-72
2022/11/18 04:40:15;;;;;;;;;5.00;2.00;;;;;-0.30;88.71;97019.25;4973485;27;103952;-72
2022/11/18 04:42:43;;;;;;;;;2.50;1.75;;;;;-0.30;88.50;97019.25;4966912;28;103826;-74
2022/11/18 04:45:10;;;;;;;;;5.67;5.00;;;;;-0.26;88.31;97011.75;4962818;28;102487;-74
2022/11/18 04:47:37;;;;;;;;;8.33;6.00;;;;;-0.30;88.77;97018.41;4971671;28;102258;-73
2022/11/18 04:50:05;;;;;;;;;6.67;6.67;;;;;-0.31;89.02;97022.91;4953359;28;103051;-74
2022/11/18 04:52:32;;;;;;;;;5.33;4.67;;;;;-0.28;88.36;97024.41;4952851;28;104051;-74
2022/11/18 04:54:59;;;;;;;;;5.00;4.00;;;;;-0.29;88.69;97020.06;4974143;28;102206;-75
2022/11/18 04:57:26;;;;;;;;;15.00;8.00;;;;;-0.39;89.28;97017.63;4971360;28;102159;-75
2022/11/18 04:59:53;;;;;;;;;8.00;7.33;;;;;-0.42;89.94;97020.63;4971419;28;101987;-74
2022/11/18 05:02:20;;;;;;;;;18.33;15.67;;;;;-0.55;90.03;97025.66;4969263;28;103987;-74
2022/11/18 05:04:47;;;;;;;;;13.67;13.00;;;;;-0.52;90.05;97014.69;4960568;28;104059;-74
2022/11/18 05:07:15;;;;;;;;;13.00;8.67;;;;;-0.45;89.19;97020.94;4963511;28;102148;-74
2022/11/18 05:09:42;;;;;;;;;8.00;8.00;;;;;-0.41;89.80;97027.59;4967755;28;102134;-72
2022/11/18 05:14:59;;;;;;;;;11.33;11.00;;;;;-0.38;88.97;97026.41;4965166;28;104004;-73
2022/11/18 05:17:27;;;;;;;;;8.33;8.00;;;;;-0.39;89.55;97030.06;4965585;28;102202;-74
2022/11/18 05:19:54;;;;;;;;;10.33;9.00;;;;;-0.38;90.42;97026.41;4965001;28;102261;-72
2022/11/18 05:22:21;;;;;;;;;17.33;11.67;;;;;-0.54;89.79;97022.81;4953518;28;104451;-72
2022/11/18 05:24:48;;;;;;;;;10.33;6.67;;;;;-0.45;89.83;97015.63;4967195;28;103944;-74
2022/11/18 05:27:15;;;;;;;;;6.67;5.00;;;;;-0.36;90.59;97025.22;4961717;27;102237;-73
2022/11/18 05:29:43;;;;;;;;;11.00;8.33;;;;;-0.29;89.53;97020.06;4959925;28;102313;-72
2022/11/18 05:32:10;;;;;;;;;8.00;7.33;;;;;-0.30;89.50;97035.19;4960386;27;104038;-73
2022/11/18 05:34:39;;;;;;;;;5.33;5.00;;;;;-0.30;89.06;97037.00;4964120;28;103723;-73
2022/11/18 05:37:06;;;;;;;;;11.33;8.00;;;;;-0.24;88.79;97042.47;4960569;28;102166;-73
2022/11/18 05:39:33;;;;;;;;;4.00;4.00;;;;;-0.20;89.13;97051.75;4972210;28;103091;-73
2022/11/18 05:44:46;;;;;;;;;4.75;4.75;;;;;-0.17;88.81;97047.91;4963431;28;105844;-73
2022/11/18 05:47:13;;;;;;;;;2.00;1.00;;;;;-0.14;88.08;97055.56;4971088;28;102379;-72
2022/11/18 05:49:40;;;;;;;;;5.50;4.50;;;;;-0.17;88.25;97056.72;4966017;28;102969;-72
2022/11/18 05:52:07;;;;;;;;;9.00;9.00;;;;;-0.23;88.19;97044.13;4960562;28;104086;-72
2022/11/18 05:54:34;;;;;;;;;8.00;8.00;;;;;-0.49;88.01;97009.84;4958493;28;104113;-72
2022/11/18 05:57:01;;;;;;;;;13.67;11.00;;;;;-0.30;89.71;97052.94;4966592;28;101867;-72
2022/11/18 05:59:28;;;;;;;;;10.33;9.67;;;;;-0.25;89.94;97063.88;4968416;28;102220;-72
2022/11/18 06:02:00;;;;;;;;;11.67;9.00;;;;;-0.18;89.58;97055.03;4968709;28;104261;-72
2022/11/18 06:04:35;;;;;;;;;8.00;4.00;;;;;-0.12;88.83;97067.66;4968725;28;102439;-72
2022/11/18 06:07:10;;;;;;;;;10.33;8.00;;;;;-0.13;88.19;97062.50;4971490;28;102065;-72
2022/11/18 06:09:42;;;;;;;;;5.00;5.00;;;;;-0.08;88.79;97068.94;4970007;28;102497;-72
2022/11/18 06:12:15;;;;;;;;;5.00;2.00;;;;;-0.04;88.36;97064.13;4970280;28;104120;-73
2022/11/18 06:14:48;;;;;;;;;14.00;12.00;;;;;-0.09;88.33;97069.94;4969780;28;102187;-73
2022/11/18 06:17:23;;;;;;;;;15.67;10.33;;;;;-0.11;88.27;97071.97;4966117;28;102260;-73
2022/11/18 06:19:51;;;;;;;;;17.67;13.67;;;;;-0.22;87.93;97074.97;4967509;28;102870;-72
2022/11/18 06:22:18;;;;;;;;;20.00;17.00;;;;;-0.23;88.25;97078.66;4970190;27;104131;-73
2022/11/18 06:24:45;;;;;;;;;19.00;11.33;;;;;-0.23;88.42;97088.44;4972429;28;102347;-73
2022/11/18 06:27:13;;;;;;;;;13.67;11.00;;;;;-0.22;88.43;97085.59;4960955;28;102090;-73
2022/11/18 06:29:40;;;;;;;;;9.67;9.00;;;;;-0.18;88.27;97094.88;4964707;28;102335;-73
2022/11/18 06:32:07;;;;;;;;;5.67;5.67;;;;;-0.13;88.41;97097.84;4971590;28;103975;-72
2022/11/18 06:34:34;;;;;;;;;22.67;19.00;;;;;-0.26;88.22;97099.41;4963685;28;102742;-73
2022/11/18 06:37:21;;;;;;;;;16.00;12.00;;;;;-0.32;88.12;97077.03;4967073;28;103161;-73
2022/11/18 06:39:48;;;;;;;;;8.00;6.00;;;;;-0.11;88.83;97103.00;4963375;28;102499;-73
2022/11/18 06:43:37;;;;;;;;;8.33;8.33;;;;;-0.11;88.32;97103.84;4975965;28;103926;-73
2022/11/18 06:45:04;;;;;;;;;12.00;9.00;;;;;-0.11;87.98;97109.16;4971517;28;102409;-73
2022/11/18 06:47:31;;;;;;;;;10.67;8.33;;;;;-0.08;87.52;97110.63;4974086;28;104264;-73
2022/11/18 06:49:58;;;;;;;;;13.00;9.33;;;;;-0.09;87.42;97106.34;4967892;28;102325;-73
2022/11/18 06:52:26;;;;;;;;;8.00;8.00;;;;;-0.07;87.74;97107.81;4953120;27;103967;-72
2022/11/18 06:54:53;;;;;;;;;12.00;10.00;;;;;-0.07;87.69;97107.81;4971197;28;102157;-72
2022/11/18 06:57:20;;;;;;;;;19.33;14.33;;;;;-0.29;88.32;97115.69;4973105;28;101820;-72
2022/11/18 06:59:47;;;;;;;;;17.67;17.67;;;;;-0.37;89.51;97118.34;4966828;28;102516;-73
2022/11/18 07:02:14;;;;;;;;;14.33;12.67;;;;;-0.36;89.27;97115.50;4975857;28;103933;-72
2022/11/18 07:04:41;;;;;;;;;20.00;14.67;;;;;-0.41;90.04;97114.38;4973711;28;102253;-72
2022/11/18 07:07:08;;;;;;;;;19.33;15.67;;;;;-0.44;90.13;97112.88;4973793;27;102043;-73
2022/11/18 07:09:36;;;;;;;;;14.33;12.33;;;;;-0.41;89.87;97120.53;4973227;28;102582;-75
2022/11/18 07:12:03;;;;;;;;;16.00;12.00;;;;;-0.37;90.40;97119.19;4974215;27;104004;-73
2022/11/18 07:14:31;;;;;;;;;9.67;8.00;;;;;-0.29;90.05;97123.66;4971642;28;102215;-73
2022/11/18 07:16:58;;;;;;;;;10.33;9.33;;;;;-0.25;89.48;97125.78;4970544;27;102418;-73
2022/11/18 07:19:25;;;;;;;;;9.00;9.00;;;;;-0.23;89.41;97121.16;4968521;28;102256;-72
2022/11/18 07:21:58;;;;;;;;;15.33;12.67;;;;;-0.30;89.78;97125.47;4969877;28;103988;-72
2022/11/18 07:24:25;;;;;;;;;15.67;11.67;;;;;-0.32;90.03;97122.16;4975583;28;102259;-73
2022/11/18 07:26:53;;;;;;;;;15.67;13.33;;;;;-0.32;90.23;97110.72;4952742;28;102849;-72
2022/11/18 07:29:20;;;;;;;;;24.00;17.00;;;;;-0.39;90.08;97115.84;4970551;28;102648;-73
2022/11/18 07:31:47;;;;;;;;;13.33;8.33;;;;;-0.26;90.57;97110.84;4956388;28;103774;-73
2022/11/18 07:34:14;;;;;;;;;23.00;11.33;;;;;-0.27;89.33;97114.50;4973483;28;102468;-73
2022/11/18 07:36:41;;;;;;;;;15.67;15.00;;;;;-0.24;89.69;97113.34;4970683;28;103142;-72
2022/11/18 07:39:08;;;;;;;;;15.33;12.67;;;;;-0.16;89.74;97108.00;4961573;28;103553;-73
2022/11/18 07:41:35;;;;;;;;;13.67;12.00;;;;;-0.21;89.83;97092.56;4970654;28;104003;-73
2022/11/18 07:44:03;;;;;;;;;16.33;13.67;;;;;-0.26;89.93;97092.25;4970966;28;103002;-72
2022/11/18 07:46:33;;;;;;;;;15.00;11.00;;;;;-0.17;89.95;97087.75;4968862;28;102302;-72
2022/11/18 07:49:04;;;;;;;;;11.00;8.00;;;;;-0.15;89.17;97091.06;4964647;28;102395;-73
2022/11/18 07:51:34;;;;;;;;;12.33;10.33;;;;;-0.19;89.22;97090.59;4964820;28;104065;-73
2022/11/18 07:54:12;;;;;;;;;28.33;16.67;;;;;-0.47;89.29;97058.31;4972992;28;102592;-72
2022/11/18 07:56:39;;;;;;;;;17.00;12.00;;;;;-0.25;89.67;97099.22;4968298;28;102253;-72
2022/11/18 07:59:06;;;;;;;;;22.33;18.67;;;;;-0.27;89.21;97097.75;4972613;28;102465;-73
2022/11/18 08:01:34;;;;;;;;;13.67;12.00;;;;;-0.18;89.46;97099.41;4975388;28;104063;-73
2022/11/18 08:04:11;;;;;;;;;10.00;9.00;;;;;-0.13;89.37;97108.47;4969087;28;102438;-73
2022/11/18 08:06:39;;;;;;;;;9.67;8.33;;;;;-0.07;89.49;97104.31;4966574;28;102218;-72
2022/11/18 08:09:06;;;;;;;;;16.67;13.67;;;;;-0.20;88.51;97104.88;4972398;28;102085;-73
2022/11/18 08:11:34;;;;;;;;;20.00;12.00;;;;;-0.16;89.27;97106.19;4957479;28;104039;-73
2022/11/18 08:14:01;;;;;;;;;13.33;9.67;;;;;-0.12;88.96;97115.47;4975352;28;102630;-73
2022/11/18 08:16:28;;;;;;;;;12.00;9.00;;;;;-0.09;88.79;97109.00;4971703;27;102356;-73
2022/11/18 08:18:57;;;;;;;;;10.33;8.33;;;;;-0.09;89.02;97116.97;4974457;28;102284;-73
2022/11/18 08:21:24;;;;;;;;;9.00;8.33;;;;;0.00;89.56;97111.41;4962870;28;103982;-73
2022/11/18 08:23:54;;;;;;;;;9.00;4.33;;;;;-0.04;88.69;97109.28;4972350;28;102354;-72
2022/11/18 08:26:22;;;;;;;;;12.33;11.00;;;;;-0.16;87.60;97110.66;4971250;27;103100;-72
2022/11/18 08:28:49;;;;;;;;;10.67;6.00;;;;;-0.07;87.54;97114.94;4975055;28;104018;-73
2022/11/18 08:31:24;;;;;;;;;15.00;15.00;;;;;-0.15;87.24;97117.63;4972434;27;104090;-74
2022/11/18 08:34:00;;;;;;;;;12.00;8.00;;;;;-0.17;87.45;97115.13;4957164;28;103259;-74
2022/11/18 08:36:29;;;;;;;;;14.67;9.00;;;;;-0.13;87.73;97127.06;4966089;28;102311;-72
2022/11/18 08:38:58;;;;;;;;;12.67;10.33;;;;;-0.15;87.11;97123.78;4970017;28;102341;-72
2022/11/18 08:41:35;;;;;;;;;12.33;10.33;;;;;-0.07;87.41;97121.09;4956620;28;111637;-73
2022/11/18 08:44:03;;;;;;;;;8.67;8.67;;;;;-0.12;86.99;97125.25;4965598;28;102391;-72
2022/11/18 08:46:31;;;;;;;;;10.33;10.33;;;;;-0.13;87.08;97124.41;4954366;27;102032;-73
2022/11/18 08:48:58;;;;;;;;;17.67;13.00;;;;;-0.21;87.09;97135.06;4960017;28;102328;-73
2022/11/18 08:51:26;;;;;;;;;23.33;16.67;;;;;-0.41;88.82;97109.06;4961341;27;104203;-72
2022/11/18 08:53:53;;;;;;;;;13.67;12.33;;;;;-0.31;88.03;97128.28;4970405;28;102294;-72
2022/11/18 08:56:22;;;;;;;;;16.00;13.33;;;;;-0.30;87.21;97127.28;4966228;28;102162;-73
2022/11/18 08:58:49;;;;;;;;;19.67;11.33;;;;;-0.21;88.48;97135.06;4969838;28;102072;-73
2022/11/18 09:01:17;;;;;;;;;12.00;9.33;;;;;-0.19;87.52;97134.91;4967626;28;108662;-72
2022/11/18 09:03:44;;;;;;;;;13.00;11.67;;;;;-0.16;87.17;97139.88;4967977;28;102266;-72
2022/11/18 09:06:14;;;;;;;;;11.00;11.00;;;;;-0.16;86.79;97132.75;4973228;28;102241;-73
2022/11/18 09:08:42;;;;;;;;;18.67;12.00;;;;;-0.10;86.99;97136.53;4976770;28;102301;-73
2022/11/18 09:11:10;;;;;;;;;17.67;15.33;;;;;-0.18;87.31;97136.56;4960451;28;103691;-73
2022/11/18 09:13:37;;;;;;;;;11.00;8.67;;;;;-0.24;87.05;97122.16;4970782;28;102035;-73
2022/11/18 09:16:26;;;;;;;;;17.00;15.00;;;;;-0.22;87.74;97140.53;4978716;28;101895;-73
2022/11/18 09:18:55;;;;;;;;;19.33;15.00;;;;;-0.25;85.87;97131.09;4970192;28;102151;-73
2022/11/18 09:21:24;;;;;;;;;15.00;8.00;;;;;-0.19;87.12;97130.44;4961101;28;103968;-73
2022/11/18 09:23:51;;;;;;;;;19.67;17.33;;;;;-0.17;86.92;97138.22;4977894;28;102427;-73
2022/11/18 09:26:22;;;;;;;;;22.00;17.67;;;;;-0.14;86.57;97136.06;4967979;28;102376;-73
2022/11/18 09:28:52;;;;;;;;;12.67;11.00;;;;;-0.03;86.20;97133.03;4967341;28;102137;-73
2022/11/18 09:31:19;;;;;;;;;11.50;7.50;;;;;-0.02;85.51;97129.38;4988500;28;108755;-73
2022/11/18 09:33:47;;;;;;;;;13.33;8.33;;;;;-0.03;85.49;97138.34;4964571;28;102291;-72
2022/11/18 09:36:19;;;;;;;;;15.67;12.00;;;;;-0.02;85.43;97134.69;4961034;28;103000;-73
2022/11/18 09:38:47;;;;;;;;;20.67;12.00;;;;;-0.01;84.84;97140.84;4968101;28;102232;-72
2022/11/18 09:41:37;;;;;;;;;18.33;15.33;;;;;-0.12;84.90;97142.03;4963040;28;109172;-72
2022/11/18 09:44:16;;;;;;;;;25.00;22.33;;;;;-0.21;85.32;97139.56;4962795;28;102666;-73
2022/11/18 09:47:21;;;;;;;;;19.33;15.67;;;;;-0.14;86.54;97146.69;4972819;28;102394;-72
2022/11/18 09:49:48;;;;;;;;;22.67;15.67;;;;;-0.17;85.62;97140.88;4974765;28;102350;-72
2022/11/18 09:52:23;;;;;;;;;22.00;17.67;;;;;-0.17;86.02;97124.94;4957809;28;108924;-72
2022/11/18 09:54:50;;;;;;;;;25.67;20.33;;;;;-0.20;85.70;97134.09;4987434;28;102544;-73
2022/11/18 09:57:23;;;;;;;;;17.33;13.67;;;;;-0.11;86.21;97130.41;4971431;28;102360;-73
2022/11/18 09:59:51;;;;;;;;;16.00;14.67;;;;;-0.22;85.03;97112.16;4975894;28;104031;-73
2022/11/18 10:02:44;;;;;;;;;17.67;12.00;;;;;-0.07;85.18;97137.03;4989509;28;104080;-73
2022/11/18 10:05:21;;;;;;;;;13.67;12.67;;;;;-0.04;85.20;97135.84;4954941;28;102328;-73
2022/11/18 10:08:12;;;;;;;;;10.33;9.00;;;;;0.02;84.90;97139.66;4965944;28;102057;-73
2022/11/18 10:11:11;;;;;;;;;20.67;16.33;;;;;-0.03;85.62;97143.66;4969697;28;102302;-73
2022/11/18 10:13:57;;;;;;;;;19.67;15.67;;;;;-0.06;84.53;97144.00;4967827;28;107981;-75
2022/11/18 10:17:01;;;;;;;;;23.67;16.33;;;;;-0.04;84.52;97162.41;4964571;28;102147;-73
2022/11/18 10:19:35;;;;;;;;;22.00;20.33;;;;;-0.13;85.64;97174.06;4954556;28;102005;-73
2022/11/18 10:22:33;;;;;;;;;18.33;14.33;;;;;-0.09;85.50;97160.25;4961117;28;102003;-74
2022/11/18 10:25:00;;;;;;;;;19.00;15.00;;;;;-0.04;85.38;97168.56;4967666;28;108632;-73
2022/11/18 10:27:39;;;;;;;;;19.67;15.67;;;;;-0.19;84.54;97172.09;4960725;28;102489;-73
2022/11/18 10:30:18;;;;;;;;;15.33;12.67;;;;;-0.11;84.57;97175.56;4966120;28;102332;-73
2022/11/18 10:32:56;;;;;;;;;22.67;18.33;;;;;-0.24;83.36;97175.25;4967682;28;102087;-73
2022/11/18 10:35:29;;;;;;;;;21.00;17.00;;;;;-0.24;84.08;97172.59;4966655;28;108339;-73
2022/11/18 10:38:22;;;;;;;;;24.67;22.00;;;;;-0.30;84.00;97162.63;4965182;28;101964;-73
2022/11/18 10:40:50;;;;;;;;;19.67;17.67;;;;;-0.24;84.01;97155.84;4969942;28;102281;-72
2022/11/18 10:43:44;;;;;;;;;21.67;20.00;;;;;-0.28;84.87;97165.13;4964890;28;102368;-72
2022/11/18 10:46:28;;;;;;;;;19.00;15.33;;;;;-0.26;84.66;97158.66;4960949;28;107478;-72
2022/11/18 10:49:16;;;;;;;;;26.33;19.33;;;;;-0.25;83.03;97164.78;4972533;28;102399;-72
2022/11/18 10:52:09;;;;;;;;;21.00;17.00;;;;;-0.29;84.56;97163.47;4961357;28;102083;-72
2022/11/18 10:54:36;;;;;;;;;26.00;22.33;;;;;-0.31;83.93;97171.59;4986179;28;102010;-72
2022/11/18 10:57:22;;;;;;;;;28.33;22.67;;;;;-0.37;84.03;97166.16;4980186;28;103946;-73
2022/11/18 10:59:56;;;;;;;;;30.67;23.00;;;;;-0.43;83.87;97178.25;4975509;28;102334;-73
2022/11/18 11:02:29;;;;;;;;;24.67;23.33;;;;;-0.52;82.18;97169.47;4983761;28;102078;-72
2022/11/18 11:05:00;;;;;;;;;23.67;23.00;;;;;-0.61;84.74;97164.34;4969704;28;102110;-72
2022/11/18 11:07:35;;;;;;;;;41.00;29.67;;;;;-0.61;83.53;97180.25;4964477;28;105156;-73
2022/11/18 11:10:05;;;;;;;;;24.67;16.67;;;;;-0.60;83.95;97180.09;4968612;28;102371;-73
2022/11/18 11:12:36;;;;;;;;;26.33;19.00;;;;;-0.63;83.66;97176.97;4973416;28;102392;-73
2022/11/18 11:15:09;;;;;;;;;22.67;20.00;;;;;-0.58;85.09;97175.44;4989018;28;102049;-72
2022/11/18 11:17:41;;;;;;;;;29.00;23.00;;;;;-0.58;84.50;97169.31;4964578;28;103070;-73
2022/11/18 11:20:23;;;;;;;;;27.67;19.33;;;;;-0.54;84.17;97179.41;4970627;28;102482;-73
2022/11/18 11:22:50;;;;;;;;;24.00;19.67;;;;;-0.63;84.74;97174.31;4974948;28;102028;-72
2022/11/18 11:25:25;;;;;;;;;22.33;19.00;;;;;-0.64;85.16;97170.81;4969528;28;102175;-73
2022/11/18 11:28:04;;;;;;;;;23.33;22.00;;;;;-0.61;84.59;97175.78;4983786;28;108677;-73
2022/11/18 11:31:10;;;;;;;;;30.00;26.00;;;;;-0.67;86.05;97178.25;4982416;28;102241;-73
2022/11/18 11:33:46;;;;;;;;;31.00;25.33;;;;;-0.64;84.92;97170.81;4973984;28;102418;-73
2022/11/18 11:36:34;;;;;;;;;33.67;26.67;;;;;-0.77;84.67;97157.22;4958302;28;102057;-73
2022/11/18 11:39:10;;;;;;;;;35.67;30.00;;;;;-0.72;83.38;97156.72;4968376;28;108663;-73
2022/11/18 11:41:43;;;;;;;;;29.33;20.67;;;;;-0.79;84.13;97171.63;4960950;28;102152;-73
2022/11/18 11:44:34;;;;;;;;;22.33;17.67;;;;;-0.68;85.18;97168.66;4973374;27;102166;-73
2022/11/18 11:50:30;;;;;;;;;30.67;19.67;;;;;-0.72;83.86;97162.84;4965845;28;108394;-72
2022/11/18 11:53:19;;;;;;;;;30.00;23.33;;;;;-0.87;83.57;97168.97;4968569;27;102189;-72
2022/11/18 11:56:02;;;;;;;;;31.00;23.00;;;;;-0.97;83.28;97164.66;4956795;28;102453;-73
2022/11/18 11:58:50;;;;;;;;;15.00;12.00;;;;;-0.90;83.73;97175.44;4982732;28;102338;-73
2022/11/18 12:01:48;;;;;;;;;15.67;12.00;;;;;-0.91;83.72;97169.31;4965096;28;108887;-72